Time;durP1;ratioP1;P1;durP2;ratioP2;P2;SDS_P1;SDS_P2;PMS_P1;PMS_P2;Temp;Humidity;BMP_temperature;BMP_pressure;BME280_temperature;BME280_humidity;BME280_pressure;Samples;Min_cycle;Max_cycle;Signal;HPM_P1;HPM_P2
2023/05/07 00:00:40;;;;;;;;;;;;;;;;;;4950834;28;20128;-62
2023/05/07 00:03:06;;;;;;;;;;;;;;;;;;4964237;28;19917;-63
2023/05/07 00:05:31;;;;;;;;;;;;;;;;;;4978248;28;21559;-63
2023/05/07 00:07:59;;;;;;;;;;;;;;;;;;4958874;28;20358;-63
2023/05/07 00:10:25;;;;;;;;;;;;;;;;;;4959084;28;20057;-62
2023/05/07 00:12:50;;;;;;;;;;;;;;;;;;4961466;28;19970;-63
2023/05/07 00:15:18;;;;;;;;;;;;;;;;;;4961028;28;19922;-63
2023/05/07 00:17:43;;;;;;;;;;;;;;;;;;4966745;28;20193;-63
2023/05/07 00:20:09;;;;;;;;;;;;;;;;;;4966925;28;20293;-63
2023/05/07 00:22:37;;;;;;;;;;;;;;;;;;4959385;28;21498;-63
2023/05/07 00:25:02;;;;;;;;;;;;;;;;;;4950643;28;19921;-64
2023/05/07 00:27:28;;;;;;;;;;;;;;;;;;4956648;28;19948;-63
2023/05/07 00:29:53;;;;;;;;;;;;;;;;;;4953789;28;20479;-63
2023/05/07 00:32:21;;;;;;;;;;;;;;;;;;4977577;28;19921;-64
2023/05/07 00:34:46;;;;;;;;;;;;;;;;;;4948615;28;20024;-65
2023/05/07 00:37:15;;;;;;;;;;;;;;;;;;4944716;28;20093;-64
2023/05/07 00:39:42;;;;;;;;;;;;;;;;;;4978647;28;20400;-65
2023/05/07 00:42:08;;;;;;;;;;;;;;;;;;4961757;28;19925;-65
2023/05/07 00:44:34;;;;;;;;;;;;;;;;;;4973578;28;20357;-67
2023/05/07 00:47:01;;;;;;;;;;;;;;;;;;4946387;28;21518;-63
2023/05/07 00:49:27;;;;;;;;;;;;;;;;;;4960491;28;19968;-64
2023/05/07 00:51:52;;;;;;;;;;;;;;;;;;4966375;28;19997;-64
2023/05/07 00:54:19;;;;;;;;;;;;;;;;;;4952043;28;19921;-65
2023/05/07 00:56:47;;;;;;;;;;;;;;;;;;4956385;28;19922;-67
2023/05/07 00:59:15;;;;;;;;;;;;;;;;;;4944626;28;20008;-65
2023/05/07 01:01:44;;;;;;;;;;;;;;;;;;4965545;28;19968;-64
2023/05/07 01:04:12;;;;;;;;;;;;;;;;;;4948933;28;20000;-69
2023/05/07 01:06:40;;;;;;;;;;;;;;;;;;4962850;28;19921;-66
2023/05/07 01:09:09;;;;;;;;;;;;;;;;;;4947527;28;20277;-66
2023/05/07 01:11:34;;;;;;;;;;;;;;;;;;4976293;28;19928;-69
2023/05/07 01:14:00;;;;;;;;;;;;;;;;;;4959207;28;19917;-74
2023/05/07 01:19:43;;;;;;;;;;;;;;;;;;4976167;28;19933;-66
2023/05/07 01:22:10;;;;;;;;;;;;;;;;;;4964190;28;19925;-65
2023/05/07 01:24:35;;;;;;;;;;;;;;;;;;4959212;28;19922;-69
2023/05/07 01:33:11;;;;;;;;;;;;;;;;;;4973694;28;19980;-71
2023/05/07 01:35:37;;;;;;;;;;;;;;;;;;4978175;28;19929;-67
2023/05/07 01:38:04;;;;;;;;;;;;;;;;;;4962549;28;19932;-67
2023/05/07 01:40:30;;;;;;;;;;;;;;;;;;4949353;28;19926;-68
2023/05/07 01:42:55;;;;;;;;;;;;;;;;;;4967669;28;20549;-72
2023/05/07 01:45:21;;;;;;;;;;;;;;;;;;4980317;28;19917;-72
2023/05/07 01:47:47;;;;;;;;;;;;;;;;;;4978342;28;21829;-68
2023/05/07 01:50:12;;;;;;;;;;;;;;;;;;4978906;28;20286;-73
2023/05/07 01:52:37;;;;;;;;;;;;;;;;;;4950128;28;19917;-69
2023/05/07 01:55:05;;;;;;;;;;;;;;;;;;4959109;28;19928;-69
2023/05/07 01:57:31;;;;;;;;;;;;;;;;;;4957803;28;19926;-70
2023/05/07 01:59:57;;;;;;;;;;;;;;;;;;4963970;28;20424;-67
2023/05/07 02:02:22;;;;;;;;;;;;;;;;;;4977599;28;19922;-73
2023/05/07 02:04:47;;;;;;;;;;;;;;;;;;4978610;28;20482;-72
2023/05/07 02:07:13;;;;;;;;;;;;;;;;;;4960540;28;19965;-71
2023/05/07 02:09:38;;;;;;;;;;;;;;;;;;4975554;28;19953;-71
2023/05/07 02:12:04;;;;;;;;;;;;;;;;;;4942851;28;19917;-70
2023/05/07 02:14:30;;;;;;;;;;;;;;;;;;4958997;28;19921;-70
2023/05/07 02:16:55;;;;;;;;;;;;;;;;;;4979067;28;19925;-69
2023/05/07 02:22:15;;;;;;;;;;;;;;;;;;4961208;28;19979;-73
2023/05/07 02:27:59;;;;;;;;;;;;;;;;;;4977964;28;20068;-73
2023/05/07 02:30:25;;;;;;;;;;;;;;;;;;4976184;28;21532;-72
2023/05/07 02:32:50;;;;;;;;;;;;;;;;;;4948828;28;20466;-72
2023/05/07 02:35:16;;;;;;;;;;;;;;;;;;4962821;28;19930;-72
2023/05/07 02:37:41;;;;;;;;;;;;;;;;;;4972129;28;19937;-75
2023/05/07 02:40:06;;;;;;;;;;;;;;;;;;4938627;28;20308;-73
2023/05/07 02:42:37;;;;;;;;;;;;;;;;;;4971516;28;19921;-72
2023/05/07 02:45:08;;;;;;;;;;;;;;;;;;4954923;28;19921;-73
2023/05/07 02:47:34;;;;;;;;;;;;;;;;;;4955199;28;19918;-73
2023/05/07 02:49:59;;;;;;;;;;;;;;;;;;4954419;28;20388;-70
2023/05/07 02:52:28;;;;;;;;;;;;;;;;;;4962838;28;19972;-70
2023/05/07 02:54:53;;;;;;;;;;;;;;;;;;4953873;28;20357;-68
2023/05/07 02:57:20;;;;;;;;;;;;;;;;;;4953499;28;20372;-74
2023/05/07 02:59:48;;;;;;;;;;;;;;;;;;4955668;28;19922;-72
2023/05/07 03:02:13;;;;;;;;;;;;;;;;;;4955810;28;20361;-73
2023/05/07 03:04:38;;;;;;;;;;;;;;;;;;4951590;28;19922;-72
2023/05/07 03:07:04;;;;;;;;;;;;;;;;;;4972695;28;19979;-75
2023/05/07 03:09:32;;;;;;;;;;;;;;;;;;4953702;28;20222;-71
2023/05/07 03:11:58;;;;;;;;;;;;;;;;;;4950518;28;20357;-71
2023/05/07 03:14:23;;;;;;;;;;;;;;;;;;4966907;28;21226;-72
2023/05/07 03:16:49;;;;;;;;;;;;;;;;;;4949415;28;20910;-74
2023/05/07 03:19:15;;;;;;;;;;;;;;;;;;4949464;28;20634;-72
2023/05/07 03:21:40;;;;;;;;;;;;;;;;;;4967463;28;19917;-73
2023/05/07 03:24:06;;;;;;;;;;;;;;;;;;4947277;28;20456;-72
2023/05/07 03:26:32;;;;;;;;;;;;;;;;;;4965828;28;19918;-74
2023/05/07 03:28:57;;;;;;;;;;;;;;;;;;4928611;28;19921;-74
2023/05/07 03:31:22;;;;;;;;;;;;;;;;;;4964019;28;19922;-72
2023/05/07 03:33:48;;;;;;;;;;;;;;;;;;4942839;28;19922;-72
2023/05/07 03:36:16;;;;;;;;;;;;;;;;;;4958526;28;19936;-72
2023/05/07 03:38:41;;;;;;;;;;;;;;;;;;4960510;28;19937;-74
2023/05/07 03:41:08;;;;;;;;;;;;;;;;;;4955281;28;19922;-72
2023/05/07 03:43:33;;;;;;;;;;;;;;;;;;4958667;28;19993;-71
2023/05/07 03:45:58;;;;;;;;;;;;;;;;;;4966373;28;20309;-72
2023/05/07 03:48:23;;;;;;;;;;;;;;;;;;4977512;28;20007;-69
2023/05/07 03:54:19;;;;;;;;;;;;;;;;;;4978130;28;20045;-72
2023/05/07 03:56:44;;;;;;;;;;;;;;;;;;4951375;28;20053;-70
2023/05/07 03:59:10;;;;;;;;;;;;;;;;;;4962130;28;19929;-73
2023/05/07 04:01:35;;;;;;;;;;;;;;;;;;4966189;28;19925;-69
2023/05/07 04:04:20;;;;;;;;;;;;;;;;;;4946346;28;20372;-72
2023/05/07 04:13:19;;;;;;;;;;;;;;;;;;4974760;28;21652;-74
2023/05/07 04:15:46;;;;;;;;;;;;;;;;;;4976687;28;19922;-70
2023/05/07 04:18:14;;;;;;;;;;;;;;;;;;4973416;28;19929;-73
2023/05/07 04:20:42;;;;;;;;;;;;;;;;;;4956757;28;19980;-71
2023/05/07 04:23:07;;;;;;;;;;;;;;;;;;4961851;28;19933;-68
2023/05/07 04:25:36;;;;;;;;;;;;;;;;;;4949140;28;22213;-71
2023/05/07 04:28:01;;;;;;;;;;;;;;;;;;4944078;28;19926;-72
2023/05/07 04:30:27;;;;;;;;;;;;;;;;;;4977559;28;21169;-69
2023/05/07 04:32:52;;;;;;;;;;;;;;;;;;4976869;28;21137;-71
2023/05/07 04:35:18;;;;;;;;;;;;;;;;;;4964892;28;20549;-75
2023/05/07 04:37:45;;;;;;;;;;;;;;;;;;4975808;28;20040;-71
2023/05/07 04:40:11;;;;;;;;;;;;;;;;;;4974488;28;20273;-66
2023/05/07 04:42:36;;;;;;;;;;;;;;;;;;4948172;28;19925;-66
2023/05/07 04:45:01;;;;;;;;;;;;;;;;;;4959149;28;20270;-67
2023/05/07 04:47:27;;;;;;;;;;;;;;;;;;4949743;28;20015;-70
2023/05/07 04:49:52;;;;;;;;;;;;;;;;;;4956916;28;20689;-67
2023/05/07 04:52:18;;;;;;;;;;;;;;;;;;4963904;28;20095;-69
2023/05/07 04:54:43;;;;;;;;;;;;;;;;;;4974660;28;20057;-68
2023/05/07 04:57:08;;;;;;;;;;;;;;;;;;4982410;28;19929;-72
2023/05/07 04:59:36;;;;;;;;;;;;;;;;;;4967343;28;20047;-71
2023/05/07 05:02:03;;;;;;;;;;;;;;;;;;4964909;28;20459;-73
2023/05/07 05:04:29;;;;;;;;;;;;;;;;;;4970684;28;19922;-72
2023/05/07 05:06:54;;;;;;;;;;;;;;;;;;4951005;28;19979;-72
2023/05/07 05:09:20;;;;;;;;;;;;;;;;;;4962675;28;19972;-72
2023/05/07 05:11:45;;;;;;;;;;;;;;;;;;4973513;28;19922;-68
2023/05/07 05:14:10;;;;;;;;;;;;;;;;;;4938154;28;20595;-67
2023/05/07 05:16:35;;;;;;;;;;;;;;;;;;4963766;28;19918;-68
2023/05/07 05:19:01;;;;;;;;;;;;;;;;;;4957720;28;19928;-72
2023/05/07 05:21:26;;;;;;;;;;;;;;;;;;4972077;28;20259;-71
2023/05/07 05:23:52;;;;;;;;;;;;;;;;;;4951325;28;19921;-70
2023/05/07 05:26:17;;;;;;;;;;;;;;;;;;4965861;28;20987;-70
2023/05/07 05:28:45;;;;;;;;;;;;;;;;;;4937536;28;19929;-71
2023/05/07 05:31:10;;;;;;;;;;;;;;;;;;4957396;28;19916;-67
2023/05/07 05:33:35;;;;;;;;;;;;;;;;;;4957821;28;19921;-67
2023/05/07 05:36:01;;;;;;;;;;;;;;;;;;4978762;28;20364;-68
2023/05/07 05:38:28;;;;;;;;;;;;;;;;;;4978106;28;19922;-72
2023/05/07 05:40:54;;;;;;;;;;;;;;;;;;4976034;28;20374;-67
2023/05/07 05:43:19;;;;;;;;;;;;;;;;;;4959580;28;19921;-68
2023/05/07 05:45:44;;;;;;;;;;;;;;;;;;4952521;28;19922;-67
2023/05/07 05:51:26;;;;;;;;;;;;;;;;;;4979809;28;20447;-67
2023/05/07 05:53:52;;;;;;;;;;;;;;;;;;4979538;28;19921;-69
2023/05/07 05:56:17;;;;;;;;;;;;;;;;;;4967838;28;20408;-67
2023/05/07 05:58:45;;;;;;;;;;;;;;;;;;4946628;28;20384;-68
2023/05/07 06:01:11;;;;;;;;;;;;;;;;;;4959744;28;19922;-68
2023/05/07 06:03:36;;;;;;;;;;;;;;;;;;4963087;28;19928;-69
2023/05/07 06:06:02;;;;;;;;;;;;;;;;;;4973608;28;19922;-73
2023/05/07 06:08:27;;;;;;;;;;;;;;;;;;4966650;28;20023;-67
2023/05/07 06:10:53;;;;;;;;;;;;;;;;;;4980485;28;19918;-68
2023/05/07 06:13:18;;;;;;;;;;;;;;;;;;4970665;28;19921;-67
2023/05/07 06:15:44;;;;;;;;;;;;;;;;;;4953232;28;20783;-69
2023/05/07 06:18:09;;;;;;;;;;;;;;;;;;4950358;28;19925;-68
2023/05/07 06:20:35;;;;;;;;;;;;;;;;;;4967015;28;19917;-67
2023/05/07 06:23:03;;;;;;;;;;;;;;;;;;4953428;28;20063;-67
2023/05/07 06:25:28;;;;;;;;;;;;;;;;;;4954998;28;20365;-70
2023/05/07 06:27:53;;;;;;;;;;;;;;;;;;4962844;28;19952;-67
2023/05/07 06:30:19;;;;;;;;;;;;;;;;;;4960182;28;19982;-68
2023/05/07 06:32:47;;;;;;;;;;;;;;;;;;4977652;28;20411;-69
2023/05/07 06:35:15;;;;;;;;;;;;;;;;;;4950829;28;19948;-72
2023/05/07 06:37:43;;;;;;;;;;;;;;;;;;4961607;28;19937;-65
2023/05/07 06:40:08;;;;;;;;;;;;;;;;;;4953393;28;19922;-68
2023/05/07 06:42:34;;;;;;;;;;;;;;;;;;4952248;28;20238;-68
2023/05/07 06:45:00;;;;;;;;;;;;;;;;;;4949511;28;20000;-67
2023/05/07 06:47:25;;;;;;;;;;;;;;;;;;4938972;28;19977;-69
2023/05/07 06:49:50;;;;;;;;;;;;;;;;;;4943580;28;19921;-68
2023/05/07 06:52:16;;;;;;;;;;;;;;;;;;4974722;28;19922;-70
2023/05/07 06:54:44;;;;;;;;;;;;;;;;;;4969121;28;19925;-72
2023/05/07 06:57:11;;;;;;;;;;;;;;;;;;4969594;28;20495;-76
2023/05/07 06:59:38;;;;;;;;;;;;;;;;;;4949208;28;20407;-68
2023/05/07 07:02:04;;;;;;;;;;;;;;;;;;4954774;28;19918;-68
2023/05/07 07:04:29;;;;;;;;;;;;;;;;;;4973491;28;21591;-67
2023/05/07 07:06:56;;;;;;;;;;;;;;;;;;4972737;28;19983;-70
2023/05/07 07:09:22;;;;;;;;;;;;;;;;;;4959856;28;19921;-71
2023/05/07 07:11:47;;;;;;;;;;;;;;;;;;4950632;28;19949;-68
2023/05/07 07:14:13;;;;;;;;;;;;;;;;;;4957889;28;20181;-68
2023/05/07 07:16:40;;;;;;;;;;;;;;;;;;4935550;28;20040;-68
2023/05/07 07:19:06;;;;;;;;;;;;;;;;;;4962085;28;20022;-67
2023/05/07 07:21:31;;;;;;;;;;;;;;;;;;4951551;28;20285;-68
2023/05/07 07:23:57;;;;;;;;;;;;;;;;;;4971851;28;20404;-69
2023/05/07 07:26:25;;;;;;;;;;;;;;;;;;4944753;28;19928;-68
2023/05/07 07:28:53;;;;;;;;;;;;;;;;;;4974964;28;19918;-68
2023/05/07 07:31:21;;;;;;;;;;;;;;;;;;4976788;28;19924;-68
2023/05/07 07:33:47;;;;;;;;;;;;;;;;;;4963304;28;19922;-68
2023/05/07 07:36:15;;;;;;;;;;;;;;;;;;4960296;28;19930;-70
2023/05/07 07:38:41;;;;;;;;;;;;;;;;;;4979492;28;20443;-68
2023/05/07 07:41:15;;;;;;;;;;;;;;;;;;4954084;28;20012;-69
2023/05/07 07:43:43;;;;;;;;;;;;;;;;;;4949944;28;19968;-66
2023/05/07 07:46:08;;;;;;;;;;;;;;;;;;4971863;28;19917;-68
2023/05/07 07:48:34;;;;;;;;;;;;;;;;;;4976826;28;21496;-67
2023/05/07 07:50:59;;;;;;;;;;;;;;;;;;4975376;28;20462;-68
2023/05/07 07:53:27;;;;;;;;;;;;;;;;;;4946940;28;19922;-68
2023/05/07 07:55:52;;;;;;;;;;;;;;;;;;4958252;28;19921;-69
2023/05/07 07:58:18;;;;;;;;;;;;;;;;;;4968009;28;20423;-70
2023/05/07 08:00:43;;;;;;;;;;;;;;;;;;4962934;28;19932;-68
2023/05/07 08:03:11;;;;;;;;;;;;;;;;;;4972889;28;20539;-68
2023/05/07 08:05:38;;;;;;;;;;;;;;;;;;4936261;28;20133;-66
2023/05/07 08:08:03;;;;;;;;;;;;;;;;;;4942966;28;19922;-67
2023/05/07 08:10:29;;;;;;;;;;;;;;;;;;4956546;28;20452;-66
2023/05/07 08:12:54;;;;;;;;;;;;;;;;;;4961149;28;20029;-69
2023/05/07 08:15:20;;;;;;;;;;;;;;;;;;4949381;28;19921;-68
2023/05/07 08:17:45;;;;;;;;;;;;;;;;;;4943100;28;19921;-70
2023/05/07 08:20:11;;;;;;;;;;;;;;;;;;4976233;28;20651;-69
2023/05/07 08:22:36;;;;;;;;;;;;;;;;;;4963585;28;19930;-66
2023/05/07 08:25:04;;;;;;;;;;;;;;;;;;4942530;28;20602;-65
2023/05/07 08:27:32;;;;;;;;;;;;;;;;;;4974070;28;20007;-65
2023/05/07 08:29:58;;;;;;;;;;;;;;;;;;4950345;28;19930;-66
2023/05/07 08:32:24;;;;;;;;;;;;;;;;;;4955869;28;19921;-66
2023/05/07 08:34:52;;;;;;;;;;;;;;;;;;4965383;28;19930;-69
2023/05/07 08:37:17;;;;;;;;;;;;;;;;;;4974846;28;22235;-68
2023/05/07 08:39:43;;;;;;;;;;;;;;;;;;4957738;28;20013;-67
2023/05/07 08:42:08;;;;;;;;;;;;;;;;;;4974347;28;19971;-66
2023/05/07 08:44:35;;;;;;;;;;;;;;;;;;4977155;28;20362;-67
2023/05/07 08:47:01;;;;;;;;;;;;;;;;;;4977294;28;19948;-66
2023/05/07 08:49:26;;;;;;;;;;;;;;;;;;4950803;28;20377;-65
2023/05/07 08:51:55;;;;;;;;;;;;;;;;;;4961563;28;20274;-66
2023/05/07 08:54:23;;;;;;;;;;;;;;;;;;4960590;28;20359;-66
2023/05/07 08:56:48;;;;;;;;;;;;;;;;;;4975131;28;19921;-64
2023/05/07 08:59:14;;;;;;;;;;;;;;;;;;4981719;28;20273;-70
2023/05/07 09:01:39;;;;;;;;;;;;;;;;;;4963926;28;20016;-64
2023/05/07 09:04:08;;;;;;;;;;;;;;;;;;4958926;28;19921;-64
2023/05/07 09:06:33;;;;;;;;;;;;;;;;;;4944961;28;19918;-70
2023/05/07 09:09:05;;;;;;;;;;;;;;;;;;4959818;28;19953;-66
2023/05/07 09:11:30;;;;;;;;;;;;;;;;;;4973678;28;19929;-65
2023/05/07 09:13:56;;;;;;;;;;;;;;;;;;4974194;28;19921;-64
2023/05/07 09:16:23;;;;;;;;;;;;;;;;;;4940657;28;20643;-65
2023/05/07 09:18:49;;;;;;;;;;;;;;;;;;4943772;28;19921;-69
2023/05/07 09:21:14;;;;;;;;;;;;;;;;;;4938722;28;19929;-68
2023/05/07 09:23:42;;;;;;;;;;;;;;;;;;4946027;28;20022;-66
2023/05/07 09:26:13;;;;;;;;;;;;;;;;;;4946602;28;20786;-67
2023/05/07 09:28:40;;;;;;;;;;;;;;;;;;4955041;28;19929;-68
2023/05/07 09:31:05;;;;;;;;;;;;;;;;;;4959130;28;19921;-66
2023/05/07 09:36:47;;;;;;;;;;;;;;;;;;4974081;28;20011;-65
2023/05/07 09:39:15;;;;;;;;;;;;;;;;;;4948996;28;20333;-65
2023/05/07 09:41:41;;;;;;;;;;;;;;;;;;4958272;28;20444;-66
2023/05/07 09:44:06;;;;;;;;;;;;;;;;;;4939683;28;19976;-65
2023/05/07 09:46:31;;;;;;;;;;;;;;;;;;4950679;28;19918;-66
2023/05/07 09:48:56;;;;;;;;;;;;;;;;;;4968826;28;20347;-68
2023/05/07 09:51:22;;;;;;;;;;;;;;;;;;4942036;28;19973;-65
2023/05/07 09:53:50;;;;;;;;;;;;;;;;;;4938711;28;20814;-67
2023/05/07 09:56:23;;;;;;;;;;;;;;;;;;4962461;28;19929;-65
2023/05/07 09:58:51;;;;;;;;;;;;;;;;;;4945434;28;19944;-65
2023/05/07 10:01:17;;;;;;;;;;;;;;;;;;4943816;28;19959;-64
2023/05/07 10:03:42;;;;;;;;;;;;;;;;;;4954887;28;20640;-64
2023/05/07 10:06:08;;;;;;;;;;;;;;;;;;4950088;28;20745;-68
2023/05/07 10:08:33;;;;;;;;;;;;;;;;;;4975126;28;19962;-69
2023/05/07 10:10:58;;;;;;;;;;;;;;;;;;4974340;28;20221;-66
2023/05/07 10:13:24;;;;;;;;;;;;;;;;;;4957484;28;19944;-65
2023/05/07 10:15:52;;;;;;;;;;;;;;;;;;4952341;28;19933;-65
2023/05/07 10:18:22;;;;;;;;;;;;;;;;;;4966927;28;19975;-65
2023/05/07 10:20:47;;;;;;;;;;;;;;;;;;4951740;28;20523;-64
2023/05/07 10:23:12;;;;;;;;;;;;;;;;;;4939200;28;19949;-63
2023/05/07 10:25:38;;;;;;;;;;;;;;;;;;4950594;28;19957;-63
2023/05/07 10:28:03;;;;;;;;;;;;;;;;;;4950001;28;19922;-64
2023/05/07 10:30:28;;;;;;;;;;;;;;;;;;4946732;28;20422;-65
2023/05/07 10:32:53;;;;;;;;;;;;;;;;;;4939401;28;20335;-64
2023/05/07 10:35:19;;;;;;;;;;;;;;;;;;4977462;28;19980;-65
2023/05/07 10:37:44;;;;;;;;;;;;;;;;;;4964113;28;20004;-64
2023/05/07 10:40:12;;;;;;;;;;;;;;;;;;4966562;28;20012;-64
2023/05/07 10:45:55;;;;;;;;;;;;;;;;;;4956790;28;19991;-66
2023/05/07 10:48:20;;;;;;;;;;;;;;;;;;4947854;28;19922;-65
2023/05/07 10:50:46;;;;;;;;;;;;;;;;;;4950744;28;19921;-64
2023/05/07 10:53:13;;;;;;;;;;;;;;;;;;4950708;28;19922;-64
2023/05/07 10:55:41;;;;;;;;;;;;;;;;;;4949451;28;20477;-65
2023/05/07 10:58:07;;;;;;;;;;;;;;;;;;4979382;28;19921;-65
2023/05/07 11:00:35;;;;;;;;;;;;;;;;;;4957812;28;19922;-65
2023/05/07 11:03:04;;;;;;;;;;;;;;;;;;4945420;28;19922;-66
2023/05/07 11:05:30;;;;;;;;;;;;;;;;;;4968956;28;19922;-64
2023/05/07 11:07:57;;;;;;;;;;;;;;;;;;4967796;28;20538;-63
2023/05/07 11:10:25;;;;;;;;;;;;;;;;;;4969056;28;19925;-66
2023/05/07 11:12:56;;;;;;;;;;;;;;;;;;4952661;28;19971;-64
2023/05/07 11:15:21;;;;;;;;;;;;;;;;;;4973365;28;20406;-64
2023/05/07 11:17:46;;;;;;;;;;;;;;;;;;4967785;28;19983;-63
2023/05/07 11:20:12;;;;;;;;;;;;;;;;;;4971514;28;19921;-64
2023/05/07 11:22:39;;;;;;;;;;;;;;;;;;4956467;28;19926;-64
2023/05/07 11:25:05;;;;;;;;;;;;;;;;;;4938835;28;19918;-64
2023/05/07 11:27:40;;;;;;;;;;;;;;;;;;4952641;28;19922;-63
2023/05/07 11:30:05;;;;;;;;;;;;;;;;;;4941162;28;19925;-64
2023/05/07 11:32:30;;;;;;;;;;;;;;;;;;4940255;28;20004;-64
2023/05/07 11:34:58;;;;;;;;;;;;;;;;;;4969853;28;20525;-63
2023/05/07 11:37:23;;;;;;;;;;;;;;;;;;4951036;28;20388;-63
2023/05/07 11:43:05;;;;;;;;;;;;;;;;;;4965318;28;19928;-63
2023/05/07 11:45:30;;;;;;;;;;;;;;;;;;4954721;28;19921;-63
2023/05/07 11:47:56;;;;;;;;;;;;;;;;;;4934032;28;19922;-63
2023/05/07 11:50:22;;;;;;;;;;;;;;;;;;4969502;28;19922;-63
2023/05/07 11:52:47;;;;;;;;;;;;;;;;;;4938871;28;19922;-65
2023/05/07 11:55:12;;;;;;;;;;;;;;;;;;4955077;28;19980;-65
2023/05/07 11:57:38;;;;;;;;;;;;;;;;;;4946817;28;19968;-65
2023/05/07 12:00:06;;;;;;;;;;;;;;;;;;4972135;28;20055;-66
2023/05/07 12:02:34;;;;;;;;;;;;;;;;;;4948669;28;19917;-63
2023/05/07 12:05:00;;;;;;;;;;;;;;;;;;4956407;28;19922;-63
2023/05/07 12:07:28;;;;;;;;;;;;;;;;;;4972487;28;19979;-62
2023/05/07 12:09:53;;;;;;;;;;;;;;;;;;4945440;28;21409;-61
2023/05/07 12:12:18;;;;;;;;;;;;;;;;;;4971359;28;20347;-62
2023/05/07 12:14:47;;;;;;;;;;;;;;;;;;4949788;28;19965;-62
2023/05/07 12:17:12;;;;;;;;;;;;;;;;;;4956752;28;20373;-62
2023/05/07 12:19:40;;;;;;;;;;;;;;;;;;4961257;28;19973;-64
2023/05/07 12:22:07;;;;;;;;;;;;;;;;;;4957645;28;20720;-63
2023/05/07 12:24:35;;;;;;;;;;;;;;;;;;4977844;28;19983;-62
2023/05/07 12:27:03;;;;;;;;;;;;;;;;;;4973785;28;19965;-63
2023/05/07 12:29:28;;;;;;;;;;;;;;;;;;4972597;28;20412;-63
2023/05/07 12:31:54;;;;;;;;;;;;;;;;;;4939408;28;19929;-63
2023/05/07 12:34:19;;;;;;;;;;;;;;;;;;4949451;28;20396;-62
2023/05/07 12:36:47;;;;;;;;;;;;;;;;;;4956514;28;19930;-63
2023/05/07 12:39:15;;;;;;;;;;;;;;;;;;4950929;28;19983;-62
2023/05/07 12:41:43;;;;;;;;;;;;;;;;;;4972427;28;19922;-62
2023/05/07 12:44:08;;;;;;;;;;;;;;;;;;4973162;28;19922;-63
2023/05/07 12:46:34;;;;;;;;;;;;;;;;;;4970840;28;19918;-65
2023/05/07 12:49:01;;;;;;;;;;;;;;;;;;4973652;28;20380;-63
2023/05/07 12:51:29;;;;;;;;;;;;;;;;;;4939945;28;19924;-62
2023/05/07 12:53:55;;;;;;;;;;;;;;;;;;4961187;28;20028;-64
2023/05/07 12:56:20;;;;;;;;;;;;;;;;;;4954513;28;19921;-63
2023/05/07 12:58:48;;;;;;;;;;;;;;;;;;4958796;28;20236;-62
2023/05/07 13:01:15;;;;;;;;;;;;;;;;;;4957506;28;20486;-63
2023/05/07 13:03:40;;;;;;;;;;;;;;;;;;4942569;28;20175;-62
2023/05/07 13:06:06;;;;;;;;;;;;;;;;;;4954237;28;20432;-62
2023/05/07 13:08:31;;;;;;;;;;;;;;;;;;4958547;28;20966;-62
2023/05/07 13:10:56;;;;;;;;;;;;;;;;;;4977477;28;19924;-61
2023/05/07 13:13:24;;;;;;;;;;;;;;;;;;4977197;28;19964;-63
2023/05/07 13:15:50;;;;;;;;;;;;;;;;;;4978392;28;20008;-62
2023/05/07 13:18:15;;;;;;;;;;;;;;;;;;4973694;28;20365;-61
2023/05/07 13:20:43;;;;;;;;;;;;;;;;;;4952785;28;19921;-62
2023/05/07 13:23:11;;;;;;;;;;;;;;;;;;4964288;28;20476;-63
2023/05/07 13:25:39;;;;;;;;;;;;;;;;;;4956866;28;19926;-62
2023/05/07 13:28:08;;;;;;;;;;;;;;;;;;4974815;28;19918;-62
2023/05/07 13:30:34;;;;;;;;;;;;;;;;;;4975510;28;19921;-64
2023/05/07 13:32:59;;;;;;;;;;;;;;;;;;4960126;28;19928;-62
2023/05/07 13:35:27;;;;;;;;;;;;;;;;;;4963701;28;20316;-61
2023/05/07 13:37:55;;;;;;;;;;;;;;;;;;4952444;28;20016;-60
2023/05/07 13:40:23;;;;;;;;;;;;;;;;;;4960054;28;19928;-61
2023/05/07 13:42:49;;;;;;;;;;;;;;;;;;4969383;28;19922;-63
2023/05/07 13:45:14;;;;;;;;;;;;;;;;;;4958649;28;19984;-62
2023/05/07 13:47:39;;;;;;;;;;;;;;;;;;4975167;28;20000;-61
2023/05/07 13:50:05;;;;;;;;;;;;;;;;;;4956785;28;19939;-61
2023/05/07 13:52:30;;;;;;;;;;;;;;;;;;4975924;28;19921;-62
2023/05/07 13:54:58;;;;;;;;;;;;;;;;;;4974731;28;19918;-61
2023/05/07 13:57:29;;;;;;;;;;;;;;;;;;4960515;28;20336;-61
2023/05/07 13:59:55;;;;;;;;;;;;;;;;;;4958199;28;19976;-61
2023/05/07 14:02:23;;;;;;;;;;;;;;;;;;4974738;28;19922;-61
2023/05/07 14:04:48;;;;;;;;;;;;;;;;;;4972792;28;19973;-61
2023/05/07 14:07:14;;;;;;;;;;;;;;;;;;4958125;28;20075;-61
2023/05/07 14:09:40;;;;;;;;;;;;;;;;;;4976693;28;19922;-60
2023/05/07 14:12:05;;;;;;;;;;;;;;;;;;4976210;28;19925;-61
2023/05/07 14:14:30;;;;;;;;;;;;;;;;;;4976722;28;19932;-60
2023/05/07 14:16:55;;;;;;;;;;;;;;;;;;4957842;28;20024;-62
2023/05/07 14:19:22;;;;;;;;;;;;;;;;;;4949400;28;20666;-62
2023/05/07 14:21:51;;;;;;;;;;;;;;;;;;4951119;28;19944;-61
2023/05/07 14:24:19;;;;;;;;;;;;;;;;;;4983342;28;20399;-62
2023/05/07 14:26:47;;;;;;;;;;;;;;;;;;4964696;28;20000;-61
2023/05/07 14:29:12;;;;;;;;;;;;;;;;;;4962478;28;19922;-62
2023/05/07 14:31:41;;;;;;;;;;;;;;;;;;4979449;28;19998;-62
2023/05/07 14:34:09;;;;;;;;;;;;;;;;;;4961420;28;19934;-61
2023/05/07 14:36:34;;;;;;;;;;;;;;;;;;4977576;28;19932;-60
2023/05/07 14:39:02;;;;;;;;;;;;;;;;;;4969072;28;19921;-60
2023/05/07 14:41:29;;;;;;;;;;;;;;;;;;4976252;28;19921;-61
2023/05/07 14:43:55;;;;;;;;;;;;;;;;;;4963475;28;19945;-62
2023/05/07 14:46:21;;;;;;;;;;;;;;;;;;4965246;28;20443;-64
2023/05/07 14:48:46;;;;;;;;;;;;;;;;;;4977992;28;19928;-61
2023/05/07 14:51:12;;;;;;;;;;;;;;;;;;4948133;28;20385;-61
2023/05/07 14:53:37;;;;;;;;;;;;;;;;;;4981763;28;20214;-61
2023/05/07 14:56:03;;;;;;;;;;;;;;;;;;4976906;28;20645;-61
2023/05/07 14:58:31;;;;;;;;;;;;;;;;;;4968850;28;20048;-62
2023/05/07 15:00:56;;;;;;;;;;;;;;;;;;4980569;28;20024;-63
2023/05/07 15:03:22;;;;;;;;;;;;;;;;;;4962346;28;19924;-62
2023/05/07 15:09:04;;;;;;;;;;;;;;;;;;4979305;28;19955;-62
2023/05/07 15:11:30;;;;;;;;;;;;;;;;;;4980208;28;20470;-63
2023/05/07 15:13:55;;;;;;;;;;;;;;;;;;4945486;28;20499;-62
2023/05/07 15:16:21;;;;;;;;;;;;;;;;;;4978796;28;20009;-62
2023/05/07 15:18:46;;;;;;;;;;;;;;;;;;4978160;28;19929;-61
2023/05/07 15:21:11;;;;;;;;;;;;;;;;;;4962216;28;19922;-63
2023/05/07 15:23:36;;;;;;;;;;;;;;;;;;4946474;28;19925;-63
2023/05/07 15:26:02;;;;;;;;;;;;;;;;;;4979772;28;20008;-63
2023/05/07 15:28:28;;;;;;;;;;;;;;;;;;4976925;28;20395;-64
2023/05/07 15:30:55;;;;;;;;;;;;;;;;;;4967786;28;20512;-62
2023/05/07 15:33:21;;;;;;;;;;;;;;;;;;4958532;28;20293;-64
2023/05/07 15:35:46;;;;;;;;;;;;;;;;;;4959387;28;19932;-63
2023/05/07 15:38:12;;;;;;;;;;;;;;;;;;4953066;28;19921;-61
2023/05/07 15:40:45;;;;;;;;;;;;;;;;;;4951332;28;20338;-62
2023/05/07 15:43:11;;;;;;;;;;;;;;;;;;4951576;28;19961;-63
2023/05/07 15:45:36;;;;;;;;;;;;;;;;;;4953990;28;20433;-63
2023/05/07 15:48:04;;;;;;;;;;;;;;;;;;4965215;28;19922;-62
2023/05/07 15:50:35;;;;;;;;;;;;;;;;;;4967210;28;19917;-62
2023/05/07 15:53:03;;;;;;;;;;;;;;;;;;4973857;28;20042;-62
2023/05/07 15:55:30;;;;;;;;;;;;;;;;;;4966113;28;19929;-63
2023/05/07 15:57:55;;;;;;;;;;;;;;;;;;4978025;28;19921;-63
2023/05/07 16:00:21;;;;;;;;;;;;;;;;;;4965769;28;19936;-61
2023/05/07 16:02:46;;;;;;;;;;;;;;;;;;4977615;28;21499;-62
2023/05/07 16:05:15;;;;;;;;;;;;;;;;;;4975270;28;19926;-63
2023/05/07 16:07:43;;;;;;;;;;;;;;;;;;4972170;28;21530;-63
2023/05/07 16:10:09;;;;;;;;;;;;;;;;;;4966502;28;20336;-62
2023/05/07 16:12:34;;;;;;;;;;;;;;;;;;4967701;28;19921;-63
2023/05/07 16:15:00;;;;;;;;;;;;;;;;;;4970602;28;20455;-62
2023/05/07 16:17:28;;;;;;;;;;;;;;;;;;4971081;28;20206;-62
2023/05/07 16:19:54;;;;;;;;;;;;;;;;;;4960179;28;19926;-63
2023/05/07 16:22:23;;;;;;;;;;;;;;;;;;4953944;28;19917;-62
2023/05/07 16:24:49;;;;;;;;;;;;;;;;;;4940301;28;20196;-63
2023/05/07 16:27:14;;;;;;;;;;;;;;;;;;4939855;28;19932;-62
2023/05/07 16:29:42;;;;;;;;;;;;;;;;;;4967418;28;19929;-62
2023/05/07 16:32:08;;;;;;;;;;;;;;;;;;4942892;28;19922;-61
2023/05/07 16:34:33;;;;;;;;;;;;;;;;;;4942268;28;19944;-61
2023/05/07 16:36:59;;;;;;;;;;;;;;;;;;4947855;28;19930;-62
2023/05/07 16:39:24;;;;;;;;;;;;;;;;;;4953102;28;19925;-62
2023/05/07 16:41:50;;;;;;;;;;;;;;;;;;4955800;28;19960;-62
2023/05/07 16:44:21;;;;;;;;;;;;;;;;;;4957735;28;20632;-62
2023/05/07 16:46:48;;;;;;;;;;;;;;;;;;4974276;28;19937;-63
2023/05/07 16:49:14;;;;;;;;;;;;;;;;;;4971987;28;19967;-62
2023/05/07 16:51:45;;;;;;;;;;;;;;;;;;4955299;28;19984;-61
2023/05/07 16:54:11;;;;;;;;;;;;;;;;;;4956292;28;19992;-62
2023/05/07 16:56:36;;;;;;;;;;;;;;;;;;4944517;28;21814;-61
2023/05/07 16:59:06;;;;;;;;;;;;;;;;;;4956516;28;19925;-62
2023/05/07 17:01:36;;;;;;;;;;;;;;;;;;4943031;28;20572;-61
2023/05/07 17:04:05;;;;;;;;;;;;;;;;;;4945026;28;20369;-62
2023/05/07 17:06:30;;;;;;;;;;;;;;;;;;4970117;28;20004;-62
2023/05/07 17:08:55;;;;;;;;;;;;;;;;;;4956765;28;20384;-62
2023/05/07 17:11:23;;;;;;;;;;;;;;;;;;4962774;28;19921;-62
2023/05/07 17:13:51;;;;;;;;;;;;;;;;;;4957145;28;19939;-62
2023/05/07 17:16:18;;;;;;;;;;;;;;;;;;4972461;28;19964;-62
2023/05/07 17:18:47;;;;;;;;;;;;;;;;;;4957115;28;19925;-62
2023/05/07 17:21:12;;;;;;;;;;;;;;;;;;4973098;28;19922;-63